createdAt,value
2023-05-30T00:02:02.062Z,14.08
2023-05-30T00:04:31.644Z,14.06
2023-05-30T00:07:00.288Z,14.03
2023-05-30T00:09:28.382Z,14.00
2023-05-30T00:11:56.738Z,13.99
2023-05-30T00:14:27.667Z,13.97
2023-05-30T00:16:57.920Z,13.97
2023-05-30T00:19:26.194Z,13.95
2023-05-30T00:21:55.990Z,13.95
2023-05-30T00:24:25.982Z,13.93
2023-05-30T00:26:54.107Z,13.91
2023-05-30T00:29:22.149Z,13.88
2023-05-30T00:31:50.336Z,13.87
2023-05-30T00:34:18.629Z,13.85
2023-05-30T00:36:47.897Z,13.83
2023-05-30T00:39:16.683Z,13.80
2023-05-30T00:41:45.069Z,13.78
2023-05-30T00:44:13.241Z,13.75
2023-05-30T00:46:41.886Z,13.71
2023-05-30T00:49:10.330Z,13.68
2023-05-30T00:51:39.507Z,13.65
2023-05-30T00:54:08.997Z,13.61
2023-05-30T00:56:37.887Z,13.56
2023-05-30T00:59:07.197Z,13.50
2023-05-30T01:01:35.504Z,13.44
2023-05-30T01:04:03.647Z,13.38
2023-05-30T01:06:33.808Z,13.32
2023-05-30T01:09:04.119Z,13.25
2023-05-30T01:11:53.757Z,13.18
2023-05-30T01:14:24.801Z,13.11
2023-05-30T01:17:03.627Z,13.05
2023-05-30T01:20:11.116Z,12.97
2023-05-30T01:22:57.719Z,12.87
2023-05-30T01:25:50.998Z,12.80
2023-05-30T01:28:22.547Z,12.73
2023-05-30T01:30:53.990Z,12.68
2023-05-30T01:33:23.700Z,12.64
2023-05-30T01:35:54.551Z,12.62
2023-05-30T01:38:23.010Z,12.59
2023-05-30T01:40:55.888Z,12.58
2023-05-30T01:43:45.986Z,12.59
2023-05-30T01:46:37.506Z,12.60
2023-05-30T01:49:11.413Z,12.60
2023-05-30T01:51:51.898Z,12.61
2023-05-30T01:54:21.907Z,12.61
2023-05-30T01:57:07.914Z,12.63
2023-05-30T01:59:38.677Z,12.65
2023-05-30T02:02:08.392Z,12.69
2023-05-30T02:04:37.120Z,12.76
2023-05-30T02:07:05.964Z,12.81
2023-05-30T02:09:34.298Z,12.86
2023-05-30T02:12:03.582Z,12.87
2023-05-30T02:14:32.370Z,12.89
2023-05-30T02:17:01.013Z,12.88
2023-05-30T02:19:30.770Z,12.85
2023-05-30T02:21:58.841Z,12.84
2023-05-30T02:24:26.929Z,12.85
2023-05-30T02:26:55.498Z,12.86
2023-05-30T02:29:23.676Z,12.87
2023-05-30T02:31:51.959Z,12.88
2023-05-30T02:34:20.220Z,12.89
2023-05-30T02:36:48.397Z,12.92
2023-05-30T02:39:16.669Z,12.94
2023-05-30T02:41:45.152Z,12.95
2023-05-30T02:44:13.530Z,12.97
2023-05-30T02:46:42.647Z,13.00
2023-05-30T02:49:11.043Z,13.04
2023-05-30T02:51:39.591Z,13.08
2023-05-30T02:54:08.612Z,13.12
2023-05-30T02:56:59.398Z,13.16
2023-05-30T02:59:47.016Z,13.19
2023-05-30T03:02:15.393Z,13.21
2023-05-30T03:04:47.049Z,13.25
2023-05-30T03:07:19.175Z,13.29
2023-05-30T03:09:48.412Z,13.33
2023-05-30T03:12:17.104Z,13.35
2023-05-30T03:14:45.808Z,13.37
2023-05-30T03:17:15.120Z,13.38
2023-05-30T03:19:43.803Z,13.38
2023-05-30T03:22:13.501Z,13.39
2023-05-30T03:24:42.079Z,13.40
2023-05-30T03:27:11.098Z,13.43
2023-05-30T03:29:40.049Z,13.46
2023-05-30T03:32:09.266Z,13.48
2023-05-30T03:34:38.144Z,13.50
2023-05-30T03:37:07.039Z,13.54
2023-05-30T03:39:35.092Z,13.61
2023-05-30T03:42:03.506Z,13.68
2023-05-30T03:44:31.676Z,13.78
2023-05-30T03:47:00.872Z,13.84
2023-05-30T03:49:29.220Z,13.89
2023-05-30T03:51:57.435Z,13.90
2023-05-30T03:54:25.600Z,13.88
2023-05-30T03:56:53.871Z,13.85
2023-05-30T03:59:22.732Z,13.82
2023-05-30T04:01:50.976Z,13.77
2023-05-30T04:04:19.286Z,13.73
2023-05-30T04:06:49.487Z,13.72
2023-05-30T04:09:17.610Z,13.72
2023-05-30T04:11:45.657Z,13.74
2023-05-30T04:14:14.129Z,13.76
2023-05-30T04:16:42.236Z,13.80
2023-05-30T04:19:10.280Z,13.84
2023-05-30T04:21:39.167Z,13.91
2023-05-30T04:24:08.641Z,14.20
2023-05-30T04:26:37.992Z,15.13
2023-05-30T04:29:09.727Z,16.24
2023-05-30T04:31:38.849Z,16.28
2023-05-30T04:34:07.308Z,16.09
2023-05-30T04:36:38.004Z,15.93
2023-05-30T04:39:06.736Z,15.71
2023-05-30T04:41:35.444Z,15.53
2023-05-30T04:44:05.019Z,15.35
2023-05-30T04:46:33.088Z,15.22
2023-05-30T04:49:03.107Z,15.08
2023-05-30T04:51:34.391Z,14.94
2023-05-30T04:54:02.901Z,14.83
2023-05-30T04:56:31.201Z,14.79
2023-05-30T04:58:59.376Z,14.79
2023-05-30T05:01:27.819Z,14.80
2023-05-30T05:03:56.254Z,14.81
2023-05-30T05:06:24.664Z,14.85
2023-05-30T05:08:52.992Z,14.93
2023-05-30T05:11:24.632Z,15.20
2023-05-30T05:13:52.822Z,15.45
2023-05-30T05:16:21.277Z,15.52
2023-05-30T05:18:51.014Z,15.54
2023-05-30T05:21:19.409Z,15.47
2023-05-30T05:23:47.777Z,15.42
2023-05-30T05:26:16.559Z,15.42
2023-05-30T05:28:44.665Z,15.36
2023-05-30T05:31:12.808Z,15.33
2023-05-30T05:33:40.979Z,15.34
2023-05-30T05:36:09.358Z,15.36
2023-05-30T05:38:37.447Z,15.36
2023-05-30T05:41:05.704Z,15.32
2023-05-30T05:43:33.895Z,15.27
2023-05-30T05:46:01.973Z,15.25
2023-05-30T05:48:30.167Z,15.29
2023-05-30T05:50:58.516Z,15.32
2023-05-30T05:53:26.777Z,15.34
2023-05-30T05:55:56.117Z,15.35
2023-05-30T05:58:24.188Z,15.34
2023-05-30T06:00:52.854Z,15.38
2023-05-30T06:03:21.193Z,15.40
2023-05-30T06:05:49.489Z,15.42
2023-05-30T06:08:17.563Z,15.40
2023-05-30T06:10:46.383Z,15.42
2023-05-30T06:13:14.473Z,15.44
2023-05-30T06:15:42.819Z,15.47
2023-05-30T06:18:11.295Z,15.53
2023-05-30T06:20:39.277Z,15.58
2023-05-30T06:23:07.422Z,15.67
2023-05-30T06:25:35.800Z,15.73
2023-05-30T06:28:04.073Z,15.75
2023-05-30T06:30:32.243Z,15.83
2023-05-30T06:33:00.360Z,15.90
2023-05-30T06:35:28.587Z,15.98
2023-05-30T06:37:56.698Z,16.04
2023-05-30T06:40:25.197Z,16.10
2023-05-30T06:42:53.444Z,16.18
2023-05-30T06:45:22.001Z,16.23
2023-05-30T06:47:50.046Z,16.30
2023-05-30T06:50:18.276Z,16.34
2023-05-30T06:52:46.628Z,16.37
2023-05-30T06:55:16.641Z,16.42
2023-05-30T06:57:47.418Z,16.46
2023-05-30T07:00:18.380Z,16.49
2023-05-30T07:02:47.062Z,16.49
2023-05-30T07:05:15.405Z,16.54
2023-05-30T07:07:44.568Z,16.60
2023-05-30T07:10:13.912Z,16.66
2023-05-30T07:12:42.063Z,16.70
2023-05-30T07:15:11.456Z,16.77
2023-05-30T07:17:39.641Z,16.87
2023-05-30T07:20:09.217Z,16.97
2023-05-30T07:22:39.462Z,17.05
2023-05-30T07:25:08.134Z,17.09
2023-05-30T07:27:36.470Z,17.14
2023-05-30T07:30:05.099Z,17.14
2023-05-30T07:32:33.595Z,17.13
2023-05-30T07:35:02.370Z,17.18
2023-05-30T07:37:30.651Z,17.23
2023-05-30T07:40:05.261Z,17.32
2023-05-30T07:42:34.686Z,17.39
2023-05-30T07:45:02.873Z,17.43
2023-05-30T07:47:31.170Z,17.48
2023-05-30T07:49:59.742Z,17.52
2023-05-30T07:52:27.889Z,17.57
2023-05-30T07:54:56.358Z,17.62
2023-05-30T07:57:24.430Z,17.71
2023-05-30T07:59:52.533Z,17.78
2023-05-30T08:02:22.356Z,17.85
2023-05-30T08:04:50.576Z,17.89
2023-05-30T08:07:18.761Z,17.94
2023-05-30T08:09:47.144Z,17.98
2023-05-30T08:12:19.819Z,18.03
2023-05-30T08:14:48.512Z,18.09
2023-05-30T08:17:17.730Z,18.10
2023-05-30T08:19:46.402Z,18.14
2023-05-30T08:22:14.564Z,18.21
2023-05-30T08:24:43.045Z,18.26
2023-05-30T08:27:12.137Z,18.34
2023-05-30T08:29:42.380Z,18.39
2023-05-30T08:32:10.643Z,18.46
2023-05-30T08:34:39.944Z,18.50
2023-05-30T08:37:08.111Z,18.56
2023-05-30T08:39:36.145Z,18.59
2023-05-30T08:42:05.524Z,18.64
2023-05-30T08:44:34.178Z,18.70
2023-05-30T08:47:02.700Z,18.71
2023-05-30T08:49:35.032Z,18.73
2023-05-30T08:52:04.432Z,18.75
2023-05-30T08:54:43.126Z,18.76
2023-05-30T08:57:18.519Z,18.79
2023-05-30T08:59:50.736Z,18.82
2023-05-30T09:02:22.160Z,18.81
2023-05-30T09:04:52.136Z,18.79
2023-05-30T09:07:22.656Z,18.81
2023-05-30T09:09:52.777Z,18.88
2023-05-30T09:12:22.482Z,18.97
2023-05-30T09:14:50.576Z,19.01
2023-05-30T09:17:19.133Z,19.09
2023-05-30T09:19:47.821Z,19.09
2023-05-30T09:22:17.022Z,19.12
2023-05-30T09:24:56.437Z,19.20
2023-05-30T09:27:25.925Z,19.25
2023-05-30T09:29:54.262Z,19.29
2023-05-30T09:32:36.296Z,19.28
2023-05-30T09:35:07.634Z,19.32
2023-05-30T09:37:37.886Z,19.35
2023-05-30T09:40:08.297Z,19.40
2023-05-30T09:42:45.220Z,19.44
2023-05-30T09:45:19.397Z,19.49
2023-05-30T09:47:49.747Z,19.48
2023-05-30T09:50:22.775Z,19.54
2023-05-30T09:52:53.537Z,19.63
2023-05-30T09:55:21.955Z,19.69
2023-05-30T09:57:52.123Z,19.71
2023-05-30T10:00:25.884Z,19.74
2023-05-30T10:02:55.760Z,19.69
2023-05-30T10:05:29.776Z,19.63
2023-05-30T10:07:59.488Z,19.67
2023-05-30T10:10:28.408Z,19.71
2023-05-30T10:12:59.040Z,19.71
2023-05-30T10:15:27.581Z,19.76
2023-05-30T10:18:10.385Z,19.82
2023-05-30T10:20:46.025Z,19.85
2023-05-30T10:23:15.098Z,19.93
2023-05-30T10:25:51.081Z,20.05
2023-05-30T10:28:27.707Z,20.09
2023-05-30T10:30:57.827Z,20.08
2023-05-30T10:33:43.885Z,20.01
2023-05-30T10:36:18.428Z,19.96
2023-05-30T10:39:24.488Z,19.96
2023-05-30T10:42:01.273Z,19.99
2023-05-30T10:44:41.929Z,20.02
2023-05-30T10:47:35.117Z,20.05
2023-05-30T10:50:08.655Z,20.07
2023-05-30T10:52:36.801Z,20.14
2023-05-30T10:55:12.045Z,20.18
2023-05-30T10:57:42.517Z,20.17
2023-05-30T11:00:27.402Z,20.16
2023-05-30T11:02:58.802Z,20.18
2023-05-30T11:05:34.326Z,20.25
2023-05-30T11:08:03.303Z,20.28
2023-05-30T11:10:33.238Z,20.25
2023-05-30T11:13:12.887Z,20.25
2023-05-30T11:15:47.699Z,20.33
2023-05-30T11:18:17.800Z,20.38
2023-05-30T11:20:53.238Z,20.36
2023-05-30T11:23:23.205Z,20.37
2023-05-30T11:25:54.883Z,20.36
2023-05-30T11:28:35.812Z,20.38
2023-05-30T11:31:18.570Z,20.46
2023-05-30T11:33:48.384Z,20.50
2023-05-30T11:36:16.588Z,20.38
2023-05-30T11:38:48.458Z,20.28
2023-05-30T11:41:17.449Z,20.31
2023-05-30T11:43:46.574Z,20.33
2023-05-30T11:46:19.876Z,20.33
2023-05-30T11:48:48.151Z,20.36
2023-05-30T11:59:00.160Z,20.34
2023-05-30T12:01:28.677Z,20.34
2023-05-30T12:03:57.462Z,20.36
2023-05-30T12:06:25.598Z,20.36
2023-05-30T12:08:53.765Z,20.37
2023-05-30T12:11:22.980Z,20.35
2023-05-30T12:13:55.445Z,20.37
2023-05-30T12:16:24.545Z,20.44
2023-05-30T12:18:52.850Z,20.48
2023-05-30T12:21:21.042Z,20.56
2023-05-30T12:23:49.285Z,20.60
2023-05-30T12:26:19.371Z,20.57
2023-05-30T12:28:49.243Z,20.57
2023-05-30T12:31:24.807Z,20.58
2023-05-30T12:33:53.036Z,20.56
2023-05-30T12:36:30.059Z,20.56
2023-05-30T12:39:02.278Z,20.56
2023-05-30T12:41:32.056Z,20.59
2023-05-30T12:44:00.356Z,20.61
2023-05-30T12:46:29.412Z,20.66
2023-05-30T12:48:57.997Z,20.65
2023-05-30T12:51:26.814Z,20.65
2023-05-30T12:53:55.013Z,20.68
2023-05-30T12:56:23.474Z,20.72
2023-05-30T12:58:51.473Z,20.77
2023-05-30T13:01:19.920Z,20.83
2023-05-30T13:03:49.775Z,20.91
2023-05-30T13:06:18.108Z,20.93
2023-05-30T13:08:46.409Z,20.92
2023-05-30T13:11:14.581Z,20.89
2023-05-30T13:13:43.036Z,20.83
2023-05-30T13:16:11.137Z,20.84
2023-05-30T13:18:39.402Z,20.85
2023-05-30T13:21:07.773Z,20.85
2023-05-30T13:23:36.342Z,20.86
2023-05-30T13:26:04.517Z,20.87
2023-05-30T13:28:33.934Z,20.86
2023-05-30T13:31:04.877Z,20.85
2023-05-30T13:33:35.096Z,20.83
2023-05-30T13:36:03.574Z,20.83
2023-05-30T13:38:31.938Z,20.84
2023-05-30T13:41:00.499Z,20.86
2023-05-30T13:43:28.942Z,20.88
2023-05-30T13:45:57.519Z,20.85
2023-05-30T13:48:25.801Z,20.84
2023-05-30T13:50:53.847Z,20.84
2023-05-30T13:53:30.435Z,20.77
2023-05-30T13:56:03.913Z,20.74
2023-05-30T13:58:32.120Z,20.75
2023-05-30T14:01:04.564Z,20.79
2023-05-30T14:03:33.222Z,20.82
2023-05-30T14:06:05.916Z,20.84
2023-05-30T14:08:34.942Z,20.83
2023-05-30T14:11:03.187Z,20.84
2023-05-30T14:13:31.561Z,20.84
2023-05-30T14:15:59.867Z,20.81
2023-05-30T14:18:28.665Z,20.81
2023-05-30T14:20:56.860Z,20.79
2023-05-30T14:23:24.980Z,20.79
2023-05-30T14:25:53.065Z,20.81
2023-05-30T14:28:21.216Z,20.80
2023-05-30T14:30:49.395Z,20.81
2023-05-30T14:33:17.615Z,20.80
2023-05-30T14:35:46.029Z,20.79
2023-05-30T14:38:14.116Z,20.76
2023-05-30T14:40:42.199Z,20.72
2023-05-30T14:43:11.197Z,20.70
2023-05-30T14:45:39.516Z,20.68
2023-05-30T14:48:09.224Z,20.65
2023-05-30T14:50:37.544Z,20.66
2023-05-30T14:53:05.647Z,20.66
2023-05-30T14:55:34.228Z,20.65
2023-05-30T14:58:02.885Z,20.65
2023-05-30T15:00:31.372Z,20.65
2023-05-30T15:02:59.749Z,20.64
2023-05-30T15:05:28.443Z,20.65
2023-05-30T15:07:56.922Z,20.65
2023-05-30T15:10:25.151Z,20.64
2023-05-30T15:12:53.365Z,20.63
2023-05-30T15:15:21.633Z,20.62
2023-05-30T15:17:49.724Z,20.62
2023-05-30T15:20:18.227Z,20.60
2023-05-30T15:22:47.928Z,20.57
2023-05-30T15:25:17.007Z,20.57
2023-05-30T15:27:45.089Z,20.57
2023-05-30T15:30:13.486Z,20.58
2023-05-30T15:32:41.837Z,20.58
2023-05-30T15:35:10.067Z,20.58
2023-05-30T15:37:38.304Z,20.56
2023-05-30T15:40:07.565Z,20.55
2023-05-30T15:42:35.669Z,20.57
2023-05-30T15:45:04.716Z,20.58
2023-05-30T15:47:33.154Z,20.58
2023-05-30T15:50:01.741Z,20.57
2023-05-30T15:52:29.805Z,20.57
2023-05-30T15:54:57.809Z,20.57
2023-05-30T15:57:25.853Z,20.57
2023-05-30T15:59:54.026Z,20.53
2023-05-30T16:02:22.195Z,20.51
2023-05-30T16:04:50.279Z,20.50
2023-05-30T16:07:18.392Z,20.49
2023-05-30T16:09:46.729Z,20.47
2023-05-30T16:12:14.766Z,20.44
2023-05-30T16:14:42.778Z,20.41
2023-05-30T16:17:10.816Z,20.39
2023-05-30T16:19:38.725Z,20.38
2023-05-30T16:22:07.215Z,20.36
2023-05-30T16:24:35.154Z,20.35
2023-05-30T16:31:38.299Z,20.29
2023-05-30T16:34:06.390Z,20.27
2023-05-30T16:36:34.734Z,20.25
2023-05-30T16:39:02.782Z,20.26
2023-05-30T16:41:30.751Z,20.30
2023-05-30T16:43:59.108Z,20.33
2023-05-30T16:46:27.314Z,20.30
2023-05-30T16:48:55.478Z,20.27
2023-05-30T16:51:23.553Z,20.23
2023-05-30T16:53:54.589Z,20.21
2023-05-30T17:05:29.237Z,20.00
2023-05-30T17:07:57.330Z,19.96
2023-05-30T17:10:25.558Z,19.93
2023-05-30T17:12:53.511Z,19.90
2023-05-30T17:15:21.694Z,19.86
2023-05-30T17:17:53.226Z,19.80
2023-05-30T17:20:21.564Z,19.76
2023-05-30T17:22:49.574Z,19.73
2023-05-30T17:25:17.596Z,19.69
2023-05-30T17:27:47.780Z,19.67
2023-05-30T17:30:16.348Z,19.61
2023-05-30T17:32:44.485Z,19.55
2023-05-30T17:35:12.563Z,19.50
2023-05-30T17:37:40.622Z,19.45
2023-05-30T17:40:09.930Z,19.41
2023-05-30T17:42:38.158Z,19.37
2023-05-30T17:45:07.086Z,19.31
2023-05-30T17:47:35.098Z,19.27
2023-05-30T17:50:04.037Z,19.23
2023-05-30T17:52:32.059Z,19.18
2023-05-30T17:54:59.993Z,19.12
2023-05-30T17:57:28.144Z,19.06
2023-05-30T17:59:56.312Z,18.99
2023-05-30T18:02:24.568Z,18.91
2023-05-30T18:04:52.592Z,18.85
2023-05-30T18:07:20.588Z,18.77
2023-05-30T18:09:48.653Z,18.70
2023-05-30T18:12:16.882Z,18.61
2023-05-30T18:14:44.831Z,18.54
2023-05-30T18:17:12.811Z,18.47
2023-05-30T18:19:40.829Z,18.40
2023-05-30T18:22:08.815Z,18.31
2023-05-30T18:24:36.754Z,18.22
2023-05-30T18:27:05.049Z,18.13
2023-05-30T18:29:36.430Z,18.07
2023-05-30T18:32:04.804Z,17.98
2023-05-30T18:34:33.481Z,17.90
2023-05-30T18:37:01.466Z,17.81
2023-05-30T18:39:29.400Z,17.71
2023-05-30T18:41:57.348Z,17.63
2023-05-30T18:44:25.269Z,17.54
2023-05-30T18:46:53.205Z,17.45
2023-05-30T18:49:21.443Z,17.35
2023-05-30T18:51:51.829Z,17.24
2023-05-30T18:54:19.884Z,17.16
2023-05-30T18:56:48.142Z,17.07
2023-05-30T18:59:16.090Z,16.97
2023-05-30T19:01:44.231Z,16.85
2023-05-30T19:04:12.367Z,16.75
2023-05-30T19:06:40.351Z,16.65
2023-05-30T19:09:08.330Z,16.54
2023-05-30T19:11:36.587Z,16.44
2023-05-30T19:18:39.208Z,16.19
2023-05-30T19:21:07.152Z,16.12
2023-05-30T19:23:35.143Z,16.06
2023-05-30T19:26:04.086Z,15.98
2023-05-30T19:28:35.312Z,15.90
2023-05-30T19:31:04.604Z,15.82
2023-05-30T19:33:32.570Z,15.74
2023-05-30T19:36:02.305Z,15.67
2023-05-30T19:38:30.622Z,15.58
2023-05-30T19:41:00.335Z,15.50
2023-05-30T19:43:28.475Z,15.42
2023-05-30T19:45:56.381Z,15.33
2023-05-30T19:48:24.597Z,15.24
2023-05-30T19:50:52.829Z,15.17
2023-05-30T19:53:20.782Z,15.07
2023-05-30T19:55:48.684Z,14.99
2023-05-30T19:58:22.280Z,14.91
2023-05-30T20:00:51.380Z,14.84
2023-05-30T20:03:20.100Z,14.77
2023-05-30T20:05:48.265Z,14.69
2023-05-30T20:08:16.487Z,14.60
2023-05-30T20:10:44.460Z,14.51
2023-05-30T20:13:12.850Z,14.42
2023-05-30T20:15:40.909Z,14.34
2023-05-30T20:22:43.218Z,14.08
2023-05-30T20:25:11.244Z,13.98
2023-05-30T20:27:39.473Z,13.88
2023-05-30T20:30:08.198Z,13.79
2023-05-30T20:32:36.402Z,13.73
2023-05-30T20:35:04.669Z,13.66
2023-05-30T20:37:32.911Z,13.60
2023-05-30T20:40:01.171Z,13.55
2023-05-30T20:42:29.162Z,13.51
2023-05-30T20:44:57.418Z,13.46
2023-05-30T20:47:25.517Z,13.40
2023-05-30T20:49:53.724Z,13.35
2023-05-30T20:52:21.751Z,13.30
2023-05-30T20:54:49.917Z,13.24
2023-05-30T20:57:22.433Z,13.18
2023-05-30T20:59:50.947Z,13.11
2023-05-30T21:02:19.168Z,13.05
2023-05-30T21:04:47.387Z,13.00
2023-05-30T21:07:15.439Z,12.95
2023-05-30T21:09:43.547Z,12.90
2023-05-30T21:12:11.944Z,12.85
2023-05-30T21:14:40.814Z,12.80
2023-05-30T21:17:11.705Z,12.75
2023-05-30T21:19:39.945Z,12.69
2023-05-30T21:22:07.980Z,12.65
2023-05-30T21:24:36.053Z,12.62
2023-05-30T21:27:04.476Z,12.58
2023-05-30T21:29:32.618Z,12.54
2023-05-30T21:32:00.863Z,12.49
2023-05-30T21:34:29.818Z,12.45
2023-05-30T21:36:58.823Z,12.41
2023-05-30T21:39:26.893Z,12.36
2023-05-30T21:41:55.946Z,12.31
2023-05-30T21:44:24.044Z,12.28
2023-05-30T21:46:52.056Z,12.26
2023-05-30T21:49:20.105Z,12.25
2023-05-30T21:51:48.146Z,12.26
2023-05-30T21:54:35.853Z,12.24
2023-05-30T21:57:05.826Z,12.23
2023-05-30T21:59:35.311Z,12.20
2023-05-30T22:02:05.911Z,12.17
2023-05-30T22:04:35.922Z,12.13
2023-05-30T22:07:08.221Z,12.08
2023-05-30T22:09:37.873Z,12.02
2023-05-30T22:12:07.875Z,11.98
2023-05-30T22:14:39.738Z,11.94
2023-05-30T22:17:11.889Z,11.91
2023-05-30T22:19:43.898Z,11.89
2023-05-30T22:22:14.863Z,11.85
2023-05-30T22:24:45.896Z,11.83
2023-05-30T22:27:17.884Z,11.81
2023-05-30T22:29:48.872Z,11.81
2023-05-30T22:32:19.937Z,11.82
2023-05-30T22:34:50.149Z,11.83
2023-05-30T22:37:20.099Z,11.84
2023-05-30T22:39:50.063Z,11.83
2023-05-30T22:42:21.314Z,11.84
2023-05-30T22:44:51.936Z,11.83
2023-05-30T22:47:23.270Z,11.81
2023-05-30T22:49:54.914Z,11.82
2023-05-30T22:52:26.939Z,11.80
2023-05-30T22:54:57.939Z,11.78
2023-05-30T22:57:28.942Z,11.74
2023-05-30T22:59:59.934Z,11.72
2023-05-30T23:02:31.003Z,11.70
2023-05-30T23:05:02.311Z,11.68
2023-05-30T23:07:33.109Z,11.63
2023-05-30T23:10:03.961Z,11.59
2023-05-30T23:20:08.337Z,11.41
2023-05-30T23:22:36.486Z,11.33
2023-05-30T23:25:05.274Z,11.26
2023-05-30T23:27:33.354Z,11.19
2023-05-30T23:30:01.417Z,11.13
2023-05-30T23:32:29.668Z,11.06
2023-05-30T23:34:57.765Z,10.98
2023-05-30T23:37:25.731Z,10.92
2023-05-30T23:39:53.828Z,10.85
2023-05-30T23:42:21.887Z,10.79
2023-05-30T23:44:50.051Z,10.73
2023-05-30T23:47:18.121Z,10.67
2023-05-30T23:49:46.494Z,10.62
2023-05-30T23:52:15.109Z,10.56
2023-05-30T23:54:43.145Z,10.53
2023-05-30T23:57:11.529Z,10.51
2023-05-30T23:59:41.779Z,10.48
